Time;durP1;ratioP1;P1;durP2;ratioP2;P2;SDS_P1;SDS_P2;PMS_P1;PMS_P2;Temp;Humidity;BMP_temperature;BMP_pressure;BME280_temperature;BME280_humidity;BME280_pressure;Samples;Min_cycle;Max_cycle;Signal;HPM_P1;HPM_P2
2023/03/22 00:00:50;;;;;;;25.35;16.92;;;;;;;;;;5005253;28;20042;-70
2023/03/22 00:03:16;;;;;;;25.05;16.35;;;;;;;;;;5012781;28;20468;-71
2023/03/22 00:05:43;;;;;;;27.17;16.70;;;;;;;;;;5012883;28;20042;-69
2023/03/22 00:08:09;;;;;;;36.78;18.88;;;;;;;;;;5011570;28;20029;-70
2023/03/22 00:10:37;;;;;;;29.77;17.95;;;;;;;;;;5012129;28;20042;-70
2023/03/22 00:13:06;;;;;;;27.70;16.17;;;;;;;;;;5012307;28;20017;-70
2023/03/22 00:15:33;;;;;;;29.25;18.13;;;;;;;;;;5012604;28;20043;-70
2023/03/22 00:17:58;;;;;;;29.45;16.85;;;;;;;;;;5011782;28;20021;-70
2023/03/22 00:20:29;;;;;;;27.42;17.05;;;;;;;;;;5012147;28;20080;-71
2023/03/22 00:22:56;;;;;;;28.67;17.88;;;;;;;;;;5011910;28;20124;-70
2023/03/22 00:25:22;;;;;;;26.60;16.40;;;;;;;;;;5012074;28;20021;-70
2023/03/22 00:27:48;;;;;;;25.92;17.30;;;;;;;;;;5010198;28;20061;-71
2023/03/22 00:30:14;;;;;;;26.00;16.40;;;;;;;;;;4995982;28;20045;-70
2023/03/22 00:32:41;;;;;;;25.85;15.52;;;;;;;;;;5008538;28;20033;-70
2023/03/22 00:35:08;;;;;;;22.13;14.25;;;;;;;;;;5010824;28;20088;-70
2023/03/22 00:37:37;;;;;;;20.90;14.45;;;;;;;;;;5006976;28;20033;-69
2023/03/22 00:40:13;;;;;;;22.88;14.32;;;;;;;;;;5006045;28;20105;-69
2023/03/22 00:42:40;;;;;;;22.50;16.05;;;;;;;;;;5011133;28;20034;-70
2023/03/22 00:45:09;;;;;;;25.02;15.45;;;;;;;;;;5010943;28;20037;-69
2023/03/22 00:47:36;;;;;;;26.45;16.08;;;;;;;;;;5011312;28;20162;-69
2023/03/22 00:50:02;;;;;;;25.88;15.57;;;;;;;;;;4992995;28;20033;-69
2023/03/22 00:52:28;;;;;;;26.35;18.67;;;;;;;;;;5010864;28;20124;-69
2023/03/22 00:54:55;;;;;;;26.20;18.92;;;;;;;;;;4993815;28;20021;-70
2023/03/22 00:57:21;;;;;;;27.30;17.75;;;;;;;;;;4992555;28;20034;-70
2023/03/22 00:59:47;;;;;;;29.77;16.67;;;;;;;;;;4993104;28;20093;-70
2023/03/22 01:02:14;;;;;;;29.15;18.45;;;;;;;;;;5009254;28;20026;-70
2023/03/22 01:04:45;;;;;;;31.77;18.60;;;;;;;;;;4993509;28;20107;-69
2023/03/22 01:07:16;;;;;;;25.65;17.75;;;;;;;;;;5005317;28;20484;-69
2023/03/22 01:09:47;;;;;;;25.55;17.50;;;;;;;;;;4992029;28;20048;-69
2023/03/22 01:12:14;;;;;;;29.15;17.80;;;;;;;;;;5010549;28;20103;-70
2023/03/22 01:14:41;;;;;;;26.52;17.98;;;;;;;;;;4991935;28;20029;-69
2023/03/22 01:17:08;;;;;;;30.48;18.90;;;;;;;;;;5010000;28;20034;-69
2023/03/22 01:19:35;;;;;;;31.02;19.13;;;;;;;;;;4992427;28;20435;-69
2023/03/22 01:22:03;;;;;;;30.83;20.60;;;;;;;;;;4993444;28;20034;-69
2023/03/22 01:24:29;;;;;;;31.95;20.63;;;;;;;;;;4993323;28;20033;-69
2023/03/22 01:26:55;;;;;;;36.08;19.45;;;;;;;;;;4994319;28;20033;-70
2023/03/22 01:29:22;;;;;;;33.70;19.33;;;;;;;;;;5011800;28;20155;-69
2023/03/22 01:31:48;;;;;;;34.08;18.80;;;;;;;;;;4994350;28;20076;-69
2023/03/22 01:34:13;;;;;;;27.20;18.60;;;;;;;;;;4994191;28;20053;-69
2023/03/22 01:36:39;;;;;;;30.77;18.17;;;;;;;;;;4994130;28;20073;-70
2023/03/22 01:39:05;;;;;;;26.45;16.65;;;;;;;;;;4994466;28;20449;-70
2023/03/22 01:41:33;;;;;;;22.52;15.52;;;;;;;;;;5010663;28;20034;-69
2023/03/22 01:44:12;;;;;;;28.48;15.95;;;;;;;;;;4994216;28;20030;-70
2023/03/22 01:46:40;;;;;;;29.52;16.75;;;;;;;;;;4994220;28;20038;-70
2023/03/22 01:49:11;;;;;;;28.52;15.82;;;;;;;;;;5011390;28;20476;-69
2023/03/22 01:51:40;;;;;;;27.42;15.68;;;;;;;;;;4993947;28;20050;-69
2023/03/22 01:54:18;;;;;;;23.52;15.75;;;;;;;;;;4994167;28;20029;-70
2023/03/22 01:56:44;;;;;;;23.15;14.35;;;;;;;;;;5010388;28;20038;-69
2023/03/22 01:59:19;;;;;;;24.73;15.63;;;;;;;;;;4993887;28;20432;-69
2023/03/22 02:02:06;;;;;;;38.30;15.95;;;;;;;;;;5003056;28;20472;-70
2023/03/22 02:04:34;;;;;;;21.65;12.98;;;;;;;;;;4994162;28;20201;-70
2023/03/22 02:07:14;;;;;;;43.05;15.38;;;;;;;;;;5002839;28;20028;-69
2023/03/22 02:09:41;;;;;;;26.73;14.38;;;;;;;;;;4993520;28;20051;-69
2023/03/22 02:12:39;;;;;;;29.45;16.95;;;;;;;;;;4993892;28;20095;-69
2023/03/22 02:15:26;;;;;;;25.77;14.95;;;;;;;;;;4994091;28;20550;-69
2023/03/22 02:18:53;;;;;;;23.42;12.27;;;;;;;;;;4991931;28;20046;-69
2023/03/22 02:21:28;;;;;;;21.30;11.02;;;;;;;;;;4997113;28;20037;-69
2023/03/22 02:24:15;;;;;;;22.80;12.43;;;;;;;;;;4997577;28;20049;-69
2023/03/22 02:27:19;;;;;;;29.45;13.32;;;;;;;;;;4997477;28;20034;-69
2023/03/22 02:29:51;;;;;;;;;;;;;;;;;;5013867;28;20038;-69
2023/03/22 02:32:41;;;;;;;17.75;12.27;;;;;;;;;;5030358;28;19945;-69
2023/03/22 02:35:32;;;;;;;20.48;13.52;;;;;;;;;;4997227;28;20053;-69
2023/03/22 02:38:22;;;;;;;20.80;13.35;;;;;;;;;;4997283;28;20033;-69
2023/03/22 02:41:28;;;;;;;19.67;13.70;;;;;;;;;;5015045;28;20030;-69
2023/03/22 02:44:10;;;;;;;18.88;12.85;;;;;;;;;;4997214;28;20459;-69
2023/03/22 02:46:47;;;;;;;17.33;11.98;;;;;;;;;;5006819;28;20034;-71
2023/03/22 02:49:29;;;;;;;21.45;12.77;;;;;;;;;;4996433;28;20507;-68
2023/03/22 02:52:18;;;;;;;18.02;10.77;;;;;;;;;;5014469;28;20041;-69
2023/03/22 02:55:00;;;;;;;16.10;10.63;;;;;;;;;;5014429;28;20040;-69
2023/03/22 02:57:39;;;;;;;23.42;10.18;;;;;;;;;;4997004;28;20096;-69
2023/03/22 03:00:10;;;;;;;15.93;10.05;;;;;;;;;;5012967;28;20033;-68
2023/03/22 03:02:40;;;;;;;15.57;9.35;;;;;;;;;;4996609;28;20551;-68
2023/03/22 03:05:09;;;;;;;14.75;8.55;;;;;;;;;;4998453;28;20108;-68
2023/03/22 03:07:36;;;;;;;13.10;8.50;;;;;;;;;;5029498;28;20130;-69
2023/03/22 03:10:04;;;;;;;11.75;8.07;;;;;;;;;;4980187;28;20037;-68
2023/03/22 03:12:30;;;;;;;11.77;7.45;;;;;;;;;;4996780;28;20092;-68
2023/03/22 03:14:56;;;;;;;13.20;8.38;;;;;;;;;;4993046;28;20068;-69
2023/03/22 03:17:52;;;;;;;15.20;8.38;;;;;;;;;;4987968;28;20520;-69
2023/03/22 03:20:35;;;;;;;15.07;8.82;;;;;;;;;;4990603;28;20037;-69
2023/03/22 03:23:13;;;;;;;15.73;7.93;;;;;;;;;;4995956;28;20034;-69
2023/03/22 03:26:04;;;;;;;11.23;7.80;;;;;;;;;;5010341;28;20441;-68
2023/03/22 03:28:37;;;;;;;18.70;8.45;;;;;;;;;;5000077;28;20030;-69
2023/03/22 03:31:08;;;;;;;30.75;10.77;;;;;;;;;;4987545;28;20034;-68
2023/03/22 03:33:42;;;;;;;13.02;8.20;;;;;;;;;;5013662;28;20170;-69
2023/03/22 03:36:11;;;;;;;19.27;8.02;;;;;;;;;;4996196;28;20096;-69
2023/03/22 03:38:43;;;;;;;12.27;8.30;;;;;;;;;;4995635;28;20048;-70
2023/03/22 03:41:16;;;;;;;17.67;8.75;;;;;;;;;;4996026;28;20519;-70
2023/03/22 03:43:44;;;;;;;13.27;8.73;;;;;;;;;;4995999;28;20300;-70
2023/03/22 03:46:10;;;;;;;12.82;8.63;;;;;;;;;;4995801;28;20034;-69
2023/03/22 03:48:38;;;;;;;15.23;7.90;;;;;;;;;;5011723;28;20052;-69
2023/03/22 03:51:04;;;;;;;16.52;8.30;;;;;;;;;;4997927;28;20048;-69
2023/03/22 03:53:30;;;;;;;16.10;8.45;;;;;;;;;;5013469;28;20061;-70
2023/03/22 03:55:56;;;;;;;19.73;8.93;;;;;;;;;;5011880;28;20033;-71
2023/03/22 03:58:23;;;;;;;19.02;9.77;;;;;;;;;;4993264;28;20053;-71
2023/03/22 04:00:49;;;;;;;15.35;8.75;;;;;;;;;;4994556;28;20064;-70
2023/03/22 04:03:49;;;;;;;15.75;9.48;;;;;;;;;;5012078;28;20038;-70
2023/03/22 04:06:33;;;;;;;17.92;10.02;;;;;;;;;;5018149;28;20515;-69
2023/03/22 04:09:04;;;;;;;18.60;10.05;;;;;;;;;;4994107;28;20033;-69
2023/03/22 04:11:36;;;;;;;22.35;10.68;;;;;;;;;;4991822;28;20037;-69
2023/03/22 04:14:03;;;;;;;21.40;10.48;;;;;;;;;;4994806;28;20045;-70
2023/03/22 04:16:29;;;;;;;26.80;11.55;;;;;;;;;;4994560;28;20026;-70
2023/03/22 04:18:55;;;;;;;21.27;11.13;;;;;;;;;;4994450;28;20034;-69
2023/03/22 04:21:20;;;;;;;17.13;9.95;;;;;;;;;;4994552;28;20026;-69
2023/03/22 04:23:54;;;;;;;19.95;9.95;;;;;;;;;;5011128;28;20383;-69
2023/03/22 04:26:21;;;;;;;23.65;10.40;;;;;;;;;;4994224;28;20040;-69
2023/03/22 04:29:16;;;;;;;31.45;10.90;;;;;;;;;;4992163;28;20447;-70
2023/03/22 04:31:46;;;;;;;37.90;11.85;;;;;;;;;;5010793;28;20487;-69
2023/03/22 04:34:18;;;;;;;16.30;8.20;;;;;;;;;;5010953;28;20566;-69
2023/03/22 04:36:54;;;;;;;13.25;6.97;;;;;;;;;;5010438;28;20040;-70
2023/03/22 04:39:30;;;;;;;17.65;7.90;;;;;;;;;;4994418;28;20040;-69
2023/03/22 04:42:22;;;;;;;18.73;8.15;;;;;;;;;;4995772;28;20034;-69
2023/03/22 04:44:56;;;;;;;19.13;7.57;;;;;;;;;;5001390;28;20500;-69
2023/03/22 04:47:22;;;;;;;24.02;8.55;;;;;;;;;;4994012;28;20040;-68
2023/03/22 04:49:47;;;;;;;28.40;8.20;;;;;;;;;;4999148;28;20118;-68
2023/03/22 04:52:15;;;;;;;22.85;7.97;;;;;;;;;;4994832;28;20030;-68
2023/03/22 04:54:47;;;;;;;35.33;10.60;;;;;;;;;;4993801;28;20030;-70
2023/03/22 04:57:13;;;;;;;28.75;8.88;;;;;;;;;;5009635;28;20036;-69
2023/03/22 04:59:43;;;;;;;21.52;10.27;;;;;;;;;;4993386;28;20026;-70
2023/03/22 05:02:09;;;;;;;20.88;10.10;;;;;;;;;;4993336;28;20086;-70
2023/03/22 05:04:41;;;;;;;25.38;10.63;;;;;;;;;;4993903;28;20030;-69
2023/03/22 05:07:33;;;;;;;24.50;11.38;;;;;;;;;;5004514;28;20563;-70
2023/03/22 05:10:01;;;;;;;29.13;11.48;;;;;;;;;;4992830;28;20124;-69
2023/03/22 05:12:27;;;;;;;22.70;10.40;;;;;;;;;;5009683;28;20112;-69
2023/03/22 05:15:03;;;;;;;29.58;10.48;;;;;;;;;;5010995;28;20121;-70
2023/03/22 05:17:33;;;;;;;17.77;10.80;;;;;;;;;;4993719;28;20577;-70
2023/03/22 05:20:08;;;;;;;18.08;11.35;;;;;;;;;;4992892;28;20046;-70
2023/03/22 05:22:39;;;;;;;18.75;10.55;;;;;;;;;;4997131;28;20029;-70
2023/03/22 05:25:07;;;;;;;20.08;10.63;;;;;;;;;;4992608;28;20365;-71
2023/03/22 05:27:37;;;;;;;24.20;11.15;;;;;;;;;;5008854;28;20050;-70
2023/03/22 05:30:36;;;;;;;19.45;10.13;;;;;;;;;;4972922;28;20053;-69
2023/03/22 05:33:22;;;;;;;29.98;12.43;;;;;;;;;;4986773;28;20037;-70
2023/03/22 05:35:52;;;;;;;15.90;10.63;;;;;;;;;;4998443;28;20037;-70
2023/03/22 05:38:18;;;;;;;27.27;11.52;;;;;;;;;;4992404;28;20062;-70
2023/03/22 05:40:54;;;;;;;22.02;11.65;;;;;;;;;;4993987;28;20045;-69
2023/03/22 05:43:20;;;;;;;20.00;11.77;;;;;;;;;;5008575;28;20054;-69
2023/03/22 05:45:49;;;;;;;23.10;11.30;;;;;;;;;;4992236;28;20026;-70
2023/03/22 05:48:35;;;;;;;24.25;11.52;;;;;;;;;;4987088;28;20025;-70
2023/03/22 05:51:04;;;;;;;21.20;11.80;;;;;;;;;;4991934;28;20088;-69
2023/03/22 05:53:32;;;;;;;20.58;11.88;;;;;;;;;;4992486;28;20033;-69
2023/03/22 05:56:14;;;;;;;22.13;12.88;;;;;;;;;;4973925;28;20069;-70
2023/03/22 05:59:00;;;;;;;19.75;11.05;;;;;;;;;;4996261;28;20032;-74
2023/03/22 06:01:27;;;;;;;18.00;11.57;;;;;;;;;;4996872;28;20092;-71
2023/03/22 06:04:08;;;;;;;17.90;11.65;;;;;;;;;;4997114;28;20412;-70
2023/03/22 06:06:46;;;;;;;25.15;12.18;;;;;;;;;;4996046;28;20084;-70
2023/03/22 06:09:27;;;;;;;22.85;12.13;;;;;;;;;;4995501;28;20072;-70
2023/03/22 06:11:54;;;;;;;28.13;12.00;;;;;;;;;;4995317;28;20038;-70
2023/03/22 06:14:22;;;;;;;25.48;11.13;;;;;;;;;;4996377;28;20368;-70
2023/03/22 06:17:14;;;;;;;25.75;10.82;;;;;;;;;;4982462;28;20137;-69
2023/03/22 06:19:41;;;;;;;22.05;9.73;;;;;;;;;;4995406;28;20040;-69
2023/03/22 06:22:11;;;;;;;17.40;9.05;;;;;;;;;;4985677;28;20487;-69
2023/03/22 06:24:39;;;;;;;15.23;8.75;;;;;;;;;;4995981;28;20034;-69
2023/03/22 06:27:06;;;;;;;33.70;9.85;;;;;;;;;;4995262;28;20470;-70
2023/03/22 06:29:32;;;;;;;15.25;7.53;;;;;;;;;;4995695;28;20379;-70
2023/03/22 06:32:01;;;;;;;17.23;8.05;;;;;;;;;;4994979;28;20021;-69
2023/03/22 06:34:27;;;;;;;20.52;8.20;;;;;;;;;;4994890;28;20506;-69
2023/03/22 06:36:54;;;;;;;13.40;7.78;;;;;;;;;;4995193;28;20484;-69
2023/03/22 06:39:46;;;;;;;13.18;7.55;;;;;;;;;;5010993;28;20046;-69
2023/03/22 06:42:12;;;;;;;25.83;8.48;;;;;;;;;;4987480;28;20121;-70
2023/03/22 06:44:41;;;;;;;13.70;6.97;;;;;;;;;;4995645;28;20026;-70
2023/03/22 06:47:29;;;;;;;17.60;7.88;;;;;;;;;;4989546;28;20033;-70
2023/03/22 06:50:01;;;;;;;14.13;7.25;;;;;;;;;;5013025;28;20499;-71
2023/03/22 06:52:46;;;;;;;24.45;9.50;;;;;;;;;;5009405;28;20504;-70
2023/03/22 06:55:12;;;;;;;15.13;9.20;;;;;;;;;;4995455;28;20064;-69
2023/03/22 06:57:38;;;;;;;22.15;10.68;;;;;;;;;;4995112;28;20049;-69
2023/03/22 07:00:04;;;;;;;20.48;10.82;;;;;;;;;;5011332;28;20030;-69
2023/03/22 07:02:30;;;;;;;24.08;10.88;;;;;;;;;;4995161;28;20173;-69
2023/03/22 07:05:15;;;;;;;20.23;10.30;;;;;;;;;;4993891;28;20029;-69
2023/03/22 07:07:41;;;;;;;22.13;10.00;;;;;;;;;;4994400;28;20102;-70
2023/03/22 07:10:07;;;;;;;19.65;9.80;;;;;;;;;;4995807;28;20344;-71
2023/03/22 07:12:33;;;;;;;18.50;10.35;;;;;;;;;;4994137;28;20034;-72
2023/03/22 07:15:06;;;;;;;20.52;10.13;;;;;;;;;;4994249;28;20087;-72
2023/03/22 07:18:08;;;;;;;16.25;10.77;;;;;;;;;;4988896;28;20037;-71
2023/03/22 07:20:37;;;;;;;18.98;9.85;;;;;;;;;;4995527;28;20096;-72
2023/03/22 07:23:03;;;;;;;16.25;11.00;;;;;;;;;;4980287;28;20053;-72
2023/03/22 07:25:33;;;;;;;22.17;10.60;;;;;;;;;;4995773;28;20033;-72
2023/03/22 07:28:13;;;;;;;21.45;11.50;;;;;;;;;;4981174;28;20022;-73
2023/03/22 07:30:40;;;;;;;15.43;10.40;;;;;;;;;;4990496;28;20124;-73
2023/03/22 07:33:09;;;;;;;15.90;10.23;;;;;;;;;;4995304;28;20538;-71
2023/03/22 07:35:36;;;;;;;19.95;10.55;;;;;;;;;;4995295;28;20045;-72
2023/03/22 07:38:03;;;;;;;17.15;10.90;;;;;;;;;;4995609;28;20063;-72
2023/03/22 07:40:31;;;;;;;21.77;10.27;;;;;;;;;;4987541;28;20059;-71
2023/03/22 07:42:57;;;;;;;14.45;10.38;;;;;;;;;;4995468;28;20083;-72
2023/03/22 07:45:51;;;;;;;24.55;12.10;;;;;;;;;;5010536;28;20042;-72
2023/03/22 07:48:35;;;;;;;16.25;9.52;;;;;;;;;;5012950;28;20052;-72
2023/03/22 07:51:21;;;;;;;16.15;9.57;;;;;;;;;;5011970;28;20112;-72
2023/03/22 07:53:47;;;;;;;18.38;9.38;;;;;;;;;;4994659;28;20061;-71
2023/03/22 07:56:13;;;;;;;11.98;9.18;;;;;;;;;;4994333;28;20455;-72
2023/03/22 07:58:39;;;;;;;27.50;9.80;;;;;;;;;;4994295;28;20108;-72
2023/03/22 08:01:07;;;;;;;23.75;9.23;;;;;;;;;;4994615;28;20017;-72
2023/03/22 08:03:42;;;;;;;13.65;8.80;;;;;;;;;;5011039;28;20096;-72
2023/03/22 08:06:26;;;;;;;23.00;9.48;;;;;;;;;;5011394;28;20126;-72
2023/03/22 08:08:54;;;;;;;16.88;9.90;;;;;;;;;;5008935;28;20117;-72
2023/03/22 08:11:20;;;;;;;11.20;8.52;;;;;;;;;;4994229;28;20060;-71
2023/03/22 08:13:45;;;;;;;11.30;8.35;;;;;;;;;;5017536;28;20413;-71
2023/03/22 08:16:11;;;;;;;10.68;7.75;;;;;;;;;;5009974;28;20037;-72
2023/03/22 08:18:38;;;;;;;12.40;7.28;;;;;;;;;;4997488;28;20041;-72
2023/03/22 08:21:05;;;;;;;13.20;8.00;;;;;;;;;;4994332;28;20030;-72
2023/03/22 08:23:34;;;;;;;14.20;8.00;;;;;;;;;;4991069;28;20437;-74
2023/03/22 08:26:21;;;;;;;14.02;7.70;;;;;;;;;;5011603;28;20084;-72
2023/03/22 08:28:49;;;;;;;17.48;8.68;;;;;;;;;;5010699;28;20042;-70
2023/03/22 08:31:16;;;;;;;11.82;7.65;;;;;;;;;;4995289;28;20471;-72
2023/03/22 08:33:45;;;;;;;9.27;7.05;;;;;;;;;;5010585;28;20033;-72
2023/03/22 08:36:18;;;;;;;9.13;6.93;;;;;;;;;;5013094;28;20026;-73
2023/03/22 08:38:50;;;;;;;10.85;7.55;;;;;;;;;;5000670;28;20041;-73
2023/03/22 08:41:20;;;;;;;10.35;7.70;;;;;;;;;;4993883;28;20040;-73
2023/03/22 08:43:46;;;;;;;11.50;7.18;;;;;;;;;;4994177;28;20042;-72
2023/03/22 08:46:12;;;;;;;9.45;6.38;;;;;;;;;;4993976;28;20030;-72
2023/03/22 08:48:40;;;;;;;10.13;6.18;;;;;;;;;;5010739;28;20064;-72
2023/03/22 08:51:15;;;;;;;12.10;6.72;;;;;;;;;;4994570;28;20022;-73
2023/03/22 08:54:05;;;;;;;8.05;6.13;;;;;;;;;;4994527;28;20030;-72
2023/03/22 08:56:51;;;;;;;11.13;6.35;;;;;;;;;;5000759;28;20053;-71
2023/03/22 08:59:37;;;;;;;7.50;5.15;;;;;;;;;;4996699;28;20050;-71
2023/03/22 09:02:26;;;;;;;9.43;6.10;;;;;;;;;;5011413;28;20441;-71
2023/03/22 09:04:53;;;;;;;7.57;5.82;;;;;;;;;;5006916;28;20133;-71
2023/03/22 09:07:19;;;;;;;15.88;7.43;;;;;;;;;;4994220;28;20050;-71
2023/03/22 09:09:54;;;;;;;10.43;6.03;;;;;;;;;;5009858;28;20034;-71
2023/03/22 09:12:21;;;;;;;10.25;6.03;;;;;;;;;;5010509;28;20165;-70
2023/03/22 09:14:48;;;;;;;10.40;5.78;;;;;;;;;;5012624;28;20021;-72
2023/03/22 09:17:17;;;;;;;9.38;7.28;;;;;;;;;;4994220;28;20030;-72
2023/03/22 09:19:44;;;;;;;12.32;7.00;;;;;;;;;;4994542;28;20049;-70
2023/03/22 09:22:11;;;;;;;10.77;6.63;;;;;;;;;;5010397;28;20029;-71
2023/03/22 09:24:42;;;;;;;10.85;5.78;;;;;;;;;;4995089;28;20088;-70
2023/03/22 09:27:08;;;;;;;8.25;5.75;;;;;;;;;;5011195;28;20034;-72
2023/03/22 09:29:34;;;;;;;8.27;5.65;;;;;;;;;;4993652;28;20057;-70
2023/03/22 09:32:05;;;;;;;10.50;6.15;;;;;;;;;;4993712;28;20400;-71
2023/03/22 09:34:34;;;;;;;10.75;6.47;;;;;;;;;;4993924;28;20038;-70
2023/03/22 09:37:01;;;;;;;10.32;6.43;;;;;;;;;;4993585;28;20034;-69
2023/03/22 09:39:32;;;;;;;16.90;8.30;;;;;;;;;;4999881;28;20041;-69
2023/03/22 09:42:05;;;;;;;11.25;6.68;;;;;;;;;;4993326;28;20030;-70
2023/03/22 09:44:38;;;;;;;10.13;6.80;;;;;;;;;;5012125;28;20115;-70
2023/03/22 09:47:17;;;;;;;8.85;6.47;;;;;;;;;;5008461;28;20034;-71
2023/03/22 09:49:47;;;;;;;9.05;6.68;;;;;;;;;;4993811;28;20468;-72
2023/03/22 09:52:15;;;;;;;10.88;6.95;;;;;;;;;;5011239;28;20364;-70
2023/03/22 09:54:43;;;;;;;17.52;7.35;;;;;;;;;;5011328;28;20018;-71
2023/03/22 09:57:14;;;;;;;11.55;7.03;;;;;;;;;;5011502;28;20491;-68
2023/03/22 09:59:52;;;;;;;9.52;7.00;;;;;;;;;;5011343;28;20041;-71
2023/03/22 10:02:44;;;;;;;10.32;6.90;;;;;;;;;;5011346;28;20145;-70
2023/03/22 10:05:27;;;;;;;13.35;6.68;;;;;;;;;;4993788;28;20076;-70
2023/03/22 10:08:16;;;;;;;9.43;6.60;;;;;;;;;;5011528;28;20037;-71
2023/03/22 10:10:42;;;;;;;11.23;6.80;;;;;;;;;;5011288;28;20052;-72
2023/03/22 10:13:31;;;;;;;11.27;6.45;;;;;;;;;;5011310;28;20017;-73
2023/03/22 10:16:04;;;;;;;9.85;6.60;;;;;;;;;;4993768;28;20030;-70
2023/03/22 10:18:37;;;;;;;10.88;6.68;;;;;;;;;;5011230;28;20049;-70
2023/03/22 10:21:05;;;;;;;9.40;6.50;;;;;;;;;;5014407;28;20116;-70
2023/03/22 10:23:45;;;;;;;10.18;7.30;;;;;;;;;;5015919;28;20038;-71
2023/03/22 10:26:22;;;;;;;11.45;6.55;;;;;;;;;;5017363;28;20040;-70
2023/03/22 10:29:11;;;;;;;11.63;6.32;;;;;;;;;;5012743;28;20041;-71
2023/03/22 10:31:42;;;;;;;9.93;6.63;;;;;;;;;;5015644;28;20040;-71
2023/03/22 10:34:17;;;;;;;8.38;5.57;;;;;;;;;;5009337;28;20030;-71
2023/03/22 10:36:44;;;;;;;7.28;5.85;;;;;;;;;;5010664;28;20053;-71
2023/03/22 10:39:41;;;;;;;9.75;5.88;;;;;;;;;;5010010;28;20037;-71
2023/03/22 10:42:15;;;;;;;10.45;6.30;;;;;;;;;;4998822;28;20194;-71
2023/03/22 10:45:01;;;;;;;7.90;5.55;;;;;;;;;;5013638;28;20095;-71
2023/03/22 10:48:26;;;;;;;8.85;6.38;;;;;;;;;;5013289;28;20037;-70
2023/03/22 10:50:53;;;;;;;13.98;6.78;;;;;;;;;;4930776;29;20067;-71
2023/03/22 10:53:21;;;;;;;9.07;5.93;;;;;;;;;;4934650;29;20610;-71
2023/03/22 10:55:47;;;;;;;10.23;5.80;;;;;;;;;;4975806;28;20129;-71
2023/03/22 10:58:19;;;;;;;7.57;5.07;;;;;;;;;;5014317;28;20056;-70
2023/03/22 11:00:50;;;;;;;6.57;4.20;;;;;;;;;;5015877;28;20546;-70
2023/03/22 11:03:28;;;;;;;6.65;4.40;;;;;;;;;;5013956;28;20037;-71
2023/03/22 11:06:12;;;;;;;8.02;5.28;;;;;;;;;;5013812;28;20044;-70
2023/03/22 11:08:43;;;;;;;;;;;;;;;;;;5014525;28;20042;-70
2023/03/22 11:11:22;;;;;;;11.25;5.53;;;;;;;;;;5011805;28;19921;-70
2023/03/22 11:14:12;;;;;;;9.15;5.32;;;;;;;;;;5014285;28;20148;-71
2023/03/22 11:16:49;;;;;;;9.15;4.55;;;;;;;;;;5014158;28;20052;-71
2023/03/22 11:19:25;;;;;;;9.55;5.25;;;;;;;;;;4996406;28;20037;-71
2023/03/22 11:21:53;;;;;;;7.67;4.90;;;;;;;;;;5013715;28;20034;-72
2023/03/22 11:24:20;;;;;;;6.85;4.00;;;;;;;;;;5013464;28;20037;-71
2023/03/22 11:27:07;;;;;;;6.63;4.20;;;;;;;;;;5013879;28;20115;-71
2023/03/22 11:29:45;;;;;;;8.25;5.00;;;;;;;;;;5013771;28;20451;-70
2023/03/22 11:32:26;;;;;;;9.18;5.70;;;;;;;;;;5012528;28;20033;-71
2023/03/22 11:35:16;;;;;;;8.55;5.30;;;;;;;;;;5013711;28;20480;-71
2023/03/22 11:37:43;;;;;;;11.30;5.32;;;;;;;;;;4994069;28;20023;-72
2023/03/22 11:40:15;;;;;;;7.70;5.07;;;;;;;;;;4993744;28;20022;-71
2023/03/22 11:42:41;;;;;;;11.50;5.00;;;;;;;;;;5013523;28;20113;-71
2023/03/22 11:45:13;;;;;;;7.35;4.68;;;;;;;;;;5011347;28;20172;-70
2023/03/22 11:47:39;;;;;;;9.07;5.53;;;;;;;;;;4992525;28;20122;-70
2023/03/22 11:50:08;;;;;;;7.95;4.90;;;;;;;;;;5004251;28;20176;-71
2023/03/22 11:52:35;;;;;;;12.38;5.20;;;;;;;;;;5008008;28;20030;-71
2023/03/22 11:55:01;;;;;;;8.27;5.07;;;;;;;;;;5009282;28;20022;-71
2023/03/22 11:57:33;;;;;;;6.47;5.10;;;;;;;;;;5013509;28;20036;-73
2023/03/22 12:00:05;;;;;;;12.27;5.53;;;;;;;;;;5014260;28;20044;-71
2023/03/22 12:02:47;;;;;;;6.93;4.43;;;;;;;;;;5014342;28;20041;-72
2023/03/22 12:05:21;;;;;;;8.93;4.93;;;;;;;;;;4995797;28;20377;-71
2023/03/22 12:07:52;;;;;;;11.50;6.93;;;;;;;;;;4995792;28;20034;-72
2023/03/22 12:10:25;;;;;;;12.52;5.95;;;;;;;;;;5013149;28;20038;-70
2023/03/22 12:12:58;;;;;;;8.15;4.82;;;;;;;;;;4995351;28;20030;-71
2023/03/22 12:15:47;;;;;;;7.07;4.90;;;;;;;;;;5013462;28;20038;-71
2023/03/22 12:18:23;;;;;;;6.00;4.97;;;;;;;;;;5011702;28;20041;-71
2023/03/22 12:20:59;;;;;;;13.18;5.28;;;;;;;;;;5013058;28;20034;-71
2023/03/22 12:23:36;;;;;;;7.75;5.28;;;;;;;;;;5012674;28;20053;-70
2023/03/22 12:26:11;;;;;;;7.82;5.10;;;;;;;;;;5012769;28;20495;-71
2023/03/22 12:29:14;;;;;;;8.13;4.35;;;;;;;;;;5005129;28;20037;-71
2023/03/22 12:31:46;;;;;;;17.47;5.87;;;;;;;;;;5006888;28;20145;-71
2023/03/22 12:34:18;;;;;;;6.93;4.40;;;;;;;;;;5012832;28;20037;-72
2023/03/22 12:36:49;;;;;;;11.10;5.00;;;;;;;;;;4994646;28;20056;-71
2023/03/22 12:39:24;;;;;;;7.07;3.92;;;;;;;;;;5012448;28;20077;-71
2023/03/22 12:41:53;;;;;;;6.88;4.18;;;;;;;;;;5013140;28;20096;-70
2023/03/22 12:44:38;;;;;;;6.65;3.85;;;;;;;;;;5012695;28;20036;-70
2023/03/22 12:47:10;;;;;;;7.95;3.70;;;;;;;;;;5012383;28;20057;-71
2023/03/22 12:49:50;;;;;;;5.13;3.40;;;;;;;;;;5012449;28;20083;-70
2023/03/22 12:52:40;;;;;;;7.32;4.25;;;;;;;;;;5012588;28;20499;-71
2023/03/22 12:55:09;;;;;;;5.00;3.78;;;;;;;;;;4995352;28;20482;-72
2023/03/22 12:57:37;;;;;;;8.15;3.80;;;;;;;;;;5012416;28;20116;-72
2023/03/22 13:00:14;;;;;;;5.50;3.78;;;;;;;;;;5012152;28;20061;-70
2023/03/22 13:02:55;;;;;;;4.20;3.25;;;;;;;;;;5012380;28;20130;-71
2023/03/22 13:05:26;;;;;;;6.15;3.28;;;;;;;;;;5011371;28;20128;-71
2023/03/22 13:07:54;;;;;;;5.53;3.20;;;;;;;;;;5012183;28;20092;-71
2023/03/22 13:10:32;;;;;;;4.65;3.20;;;;;;;;;;5012233;28;20496;-72
2023/03/22 13:13:23;;;;;;;4.93;3.53;;;;;;;;;;5012555;28;20038;-72
2023/03/22 13:15:54;;;;;;;7.90;3.80;;;;;;;;;;5012551;28;20104;-72
2023/03/22 13:18:39;;;;;;;5.05;3.50;;;;;;;;;;5011893;28;20408;-71
2023/03/22 13:21:20;;;;;;;4.75;3.25;;;;;;;;;;5012038;28;20033;-71
2023/03/22 13:24:04;;;;;;;5.07;3.08;;;;;;;;;;5011862;28;20038;-71
2023/03/22 13:26:51;;;;;;;4.07;3.15;;;;;;;;;;4995173;28;20484;-70
2023/03/22 13:29:35;;;;;;;6.78;3.38;;;;;;;;;;5012207;28;20033;-71
2023/03/22 13:32:03;;;;;;;8.07;3.70;;;;;;;;;;5012381;28;20046;-71
2023/03/22 13:34:47;;;;;;;7.25;3.90;;;;;;;;;;5012062;28;20493;-71
2023/03/22 13:37:36;;;;;;;6.65;3.25;;;;;;;;;;5012158;28;20037;-71
2023/03/22 13:40:28;;;;;;;4.22;3.00;;;;;;;;;;5011752;28;20244;-72
2023/03/22 13:43:27;;;;;;;8.13;3.30;;;;;;;;;;5010746;28;20036;-70
2023/03/22 13:46:08;;;;;;;4.38;2.75;;;;;;;;;;5011647;28;20509;-70
2023/03/22 13:48:46;;;;;;;4.13;3.00;;;;;;;;;;5011384;28;20503;-70
2023/03/22 13:51:30;;;;;;;7.60;4.10;;;;;;;;;;5011594;28;20038;-71
2023/03/22 13:54:17;;;;;;;12.00;4.35;;;;;;;;;;5010999;28;20045;-70
2023/03/22 13:56:46;;;;;;;4.68;3.10;;;;;;;;;;5010521;28;20113;-70
2023/03/22 13:59:52;;;;;;;5.97;3.25;;;;;;;;;;5011570;28;20037;-71
2023/03/22 14:02:21;;;;;;;4.88;3.13;;;;;;;;;;5011447;28;20037;-70
2023/03/22 14:04:57;;;;;;;5.82;2.80;;;;;;;;;;5011514;28;20025;-71
2023/03/22 14:07:43;;;;;;;6.18;3.20;;;;;;;;;;5011672;28;20048;-71
2023/03/22 14:10:27;;;;;;;6.55;3.53;;;;;;;;;;5013446;28;20037;-70
2023/03/22 14:12:56;;;;;;;5.70;3.42;;;;;;;;;;4994037;28;20034;-71
2023/03/22 14:15:26;;;;;;;7.05;3.40;;;;;;;;;;5011918;28;20037;-71
2023/03/22 14:18:22;;;;;;;7.35;3.80;;;;;;;;;;5015281;28;20511;-72
2023/03/22 14:20:56;;;;;;;5.13;3.30;;;;;;;;;;5002211;28;20064;-71
2023/03/22 14:23:30;;;;;;;5.47;4.10;;;;;;;;;;5015217;28;20030;-72
2023/03/22 14:26:25;;;;;;;5.43;3.42;;;;;;;;;;5015667;28;20052;-71
2023/03/22 14:28:53;;;;;;;6.60;3.90;;;;;;;;;;5009962;28;20056;-71
2023/03/22 14:31:28;;;;;;;9.60;3.72;;;;;;;;;;5016368;28;20049;-71
2023/03/22 14:33:59;;;;;;;5.57;3.83;;;;;;;;;;5015049;28;20105;-70
2023/03/22 14:36:28;;;;;;;5.13;3.20;;;;;;;;;;5015246;28;20120;-70
2023/03/22 14:38:56;;;;;;;7.68;3.55;;;;;;;;;;5014960;28;20380;-70
2023/03/22 14:41:23;;;;;;;5.60;3.40;;;;;;;;;;5014751;28;20069;-71
2023/03/22 14:43:58;;;;;;;7.28;3.42;;;;;;;;;;5015541;28;20428;-71
2023/03/22 14:46:31;;;;;;;7.93;4.00;;;;;;;;;;5014406;28;20400;-70
2023/03/22 14:48:59;;;;;;;4.95;3.42;;;;;;;;;;5014796;28;20101;-70
2023/03/22 14:51:37;;;;;;;10.50;4.20;;;;;;;;;;5014796;28;20037;-70
2023/03/22 14:54:10;;;;;;;4.85;3.25;;;;;;;;;;5007248;28;20034;-70
2023/03/22 14:56:42;;;;;;;9.75;4.38;;;;;;;;;;5007187;28;20040;-69
2023/03/22 14:59:19;;;;;;;5.18;4.15;;;;;;;;;;5014120;28;20038;-71
2023/03/22 15:01:54;;;;;;;8.95;3.97;;;;;;;;;;5010082;28;20500;-70
2023/03/22 15:04:21;;;;;;;10.73;4.13;;;;;;;;;;5016889;28;20101;-70
2023/03/22 15:07:01;;;;;;;7.97;3.75;;;;;;;;;;5014229;28;20391;-70
2023/03/22 15:09:27;;;;;;;5.93;3.85;;;;;;;;;;5012403;28;20061;-70
2023/03/22 15:12:02;;;;;;;4.28;3.60;;;;;;;;;;4994342;28;20109;-71